Castres-Mazamet Airport

LFCK · Tarn, Linguadoca-Rossiglione-Midi-Pirenei, Francia

Storia di METAR LFCK · Castres-Mazamet Airport

Di seguito sono riportati i METAR degli ultimi giorni. Seleziona un anno per sfogliare i METAR più vecchi, dall'anno 2007 in poi.

19 maggio 2024

Tempo Codice Tempo meteorologico Temp. Vista Base nuvolosa Vento METAR/SPECI
09:30
V
16 °C 10 km+ - 180° 180° 3 kt METAR LFCK 190730Z AUTO 18003KT 150V220 CAVOK 16/13 Q1013 TEMPO SCT030TCU
09:00
V
17 °C 10 km+ - 140° 140° 3 kt METAR LFCK 190700Z AUTO 14003KT 090V170 CAVOK 17/13 Q1013 NOSIG
08:30
V
15 °C 10 km+ 11.000 ft Var Var 2 kt METAR LFCK 190630Z AUTO VRB02KT 9999 SCT048 BKN110 15/12 Q1013 NOSIG
08:00
V
14 °C 10 km+ 4.900 ft Var Var 2 kt METAR LFCK 190600Z AUTO VRB02KT 9999 BKN049 OVC130 14/12 Q1013 NOSIG
07:30
V
13 °C 10 km+ - Var Var 1 kt METAR LFCK 190530Z AUTO VRB01KT CAVOK 13/11 Q1013
07:00
V
12 °C 10 km+ - 120° 120° 5 kt METAR LFCK 190500Z AUTO 12005KT CAVOK 12/11 Q1012
06:30
V
11 °C 10 km+ - 110° 110° 3 kt METAR LFCK 190430Z AUTO 11003KT CAVOK 11/10 Q1012
06:00
V
11 °C 10 km+ - 130° 130° 4 kt METAR LFCK 190400Z AUTO 13004KT CAVOK 11/10 Q1012
05:30
V
10 °C 10 km+ - 090° 090° 3 kt METAR LFCK 190330Z AUTO 09003KT CAVOK 10/10 Q1012
05:00
V
11 °C 10 km+ - 130° 130° 4 kt METAR LFCK 190300Z AUTO 13004KT CAVOK 11/10 Q1013
04:30
V
10 °C 10 km+ - 110° 110° 3 kt METAR LFCK 190230Z AUTO 11003KT CAVOK 10/10 Q1013
04:00
V
10 °C 10 km+ - 120° 120° 2 kt METAR LFCK 190200Z AUTO 12002KT CAVOK 10/09 Q1013
03:30
V
10 °C 10 km+ - 100° 100° 2 kt METAR LFCK 190130Z AUTO 10002KT CAVOK 10/10 Q1013
03:00
V
11 °C 10 km+ - 290° 290° 2 kt METAR LFCK 190100Z AUTO 29002KT CAVOK 11/11 Q1013
02:30
V
11 °C 10 km+ - 130° 130° 4 kt METAR LFCK 190030Z AUTO 13004KT CAVOK 11/11 Q1013
02:00
V
12 °C 10 km+ - 120° 120° 4 kt METAR LFCK 190000Z AUTO 12004KT CAVOK 12/11 Q1013
01:30
V
13 °C 10 km+ - 160° 160° 2 kt METAR LFCK 182330Z AUTO 16002KT CAVOK 13/12 Q1014
01:00
V
13 °C 10 km+ - Var Var 2 kt METAR LFCK 182300Z AUTO VRB02KT CAVOK 13/11 Q1014
00:30
V
14 °C 10 km+ - 110° 110° 3 kt METAR LFCK 182230Z AUTO 11003KT CAVOK 14/12 Q1014
00:00
V
13 °C 10 km+ - 070° 070° 3 kt METAR LFCK 182200Z AUTO 07003KT CAVOK 13/12 Q1014

18 maggio 2024

Tempo Codice Tempo meteorologico Temp. Vista Base nuvolosa Vento METAR/SPECI
23:30
V
14 °C 10 km+ - 140° 140° 8 kt METAR LFCK 182130Z AUTO 14008KT CAVOK 14/12 Q1014
23:00
V
13 °C 10 km+ - 140° 140° 5 kt METAR LFCK 182100Z AUTO 14005KT 9999 FEW046 13/11 Q1013 NOSIG
22:30
V
14 °C 10 km+ - 150° 150° 2 kt METAR LFCK 182030Z AUTO 15002KT CAVOK 14/11 Q1013 NOSIG
22:00
V
15 °C 10 km+ - 200° 200° 2 kt METAR LFCK 182000Z AUTO 20002KT CAVOK 15/12 Q1013 TEMPO SCT040 FEW060CB
21:30
V
17 °C 10 km+ - 360° 360° 0 kt METAR LFCK 181930Z AUTO 00000KT CAVOK 17/11 Q1013 TEMPO SCT040 FEW060CB
21:00
V
18 °C 10 km+ - 350° 350° 4 kt METAR LFCK 181900Z AUTO 35004KT CAVOK 18/11 Q1013 TEMPO SCT040 FEW060CB
20:30
V
19 °C 10 km+ - 360° 360° 5 kt METAR LFCK 181830Z AUTO 36005KT 340V040 CAVOK 19/12 Q1012 TEMPO SCT040 FEW060CB
20:00
V
20 °C 10 km+ - 330° 330° 5 kt METAR LFCK 181800Z AUTO 33005KT 300V020 CAVOK 20/12 Q1012 TEMPO SCT040 FEW060CB
19:30
V
20 °C 10 km+ - 300° 300° 4 kt METAR LFCK 181730Z AUTO 30004KT CAVOK 20/11 Q1012 TEMPO BKN040 FEW050CB
19:00
V
21 °C 10 km+ - 320° 320° 5 kt METAR LFCK 181700Z AUTO 32005KT 280V350 CAVOK 21/11 Q1012 TEMPO BKN040 FEW050CB
18:30
V
21 °C 10 km+ - Var Var 3 kt METAR LFCK 181630Z AUTO VRB03KT 9999 SCT043 21/11 Q1012 TEMPO BKN040 FEW050CB
18:00
V
21 °C 10 km+ - 320° 320° 5 kt METAR LFCK 181600Z AUTO 32005KT 300V360 CAVOK 21/10 Q1012 TEMPO BKN040 FEW050CB
17:30
V
20 °C 10 km+ - 350° 350° 5 kt METAR LFCK 181530Z AUTO 35005KT 310V020 CAVOK 20/12 Q1012 TEMPO BKN040 FEW050CB
17:00
V
20 °C 10 km+ - 310° 310° 6 kt METAR LFCK 181500Z AUTO 31006KT 260V350 9999 FEW041 SCT050 20/12 Q1013 TEMPO BKN040 FEW050CB
16:30
V
20 °C 10 km+ - 330° 330° 3 kt METAR LFCK 181430Z AUTO 33003KT 290V030 9999 FEW042 20/10 Q1013 BECMG SCT025TCU SCT060
16:00
V
20 °C 10 km+ - 340° 340° 5 kt METAR LFCK 181400Z AUTO 34005KT 270V030 9999 SCT037 20/12 Q1013 BECMG SCT025TCU SCT060
15:30
V
20 °C 10 km+ - Var Var 5 kt METAR LFCK 181330Z AUTO VRB05KT 9999 SCT036 20/11 Q1013 BECMG SCT025TCU SCT060
15:00
V
19 °C 10 km+ - 260° 260° 5 kt METAR LFCK 181300Z AUTO 26005KT 210V320 9999 FEW036 19/10 Q1014 BECMG SCT025TCU SCT060
14:30
V
18 °C 10 km+ - 350° 350° 3 kt METAR LFCK 181230Z AUTO 35003KT 280V060 9999 FEW026 18/12 Q1014 BECMG SCT025TCU SCT060
14:00
V
18 °C 10 km+ - 280° 280° 4 kt METAR LFCK 181200Z AUTO 28004KT 220V350 9999 FEW025 18/11 Q1014 BECMG SCT025TCU SCT060
13:30
V
18 °C 10 km+ - Var Var 2 kt METAR LFCK 181130Z AUTO VRB02KT 9999 FEW024 18/12 Q1014 BECMG SCT020TCU SCT050
13:00
V
17 °C 10 km+ - Var Var 3 kt METAR LFCK 181100Z AUTO VRB03KT 9999 FEW022 SCT060 17/12 Q1014 BECMG SCT020TCU SCT050
12:30
V
17 °C 10 km+ 5.600 ft Var Var 2 kt METAR LFCK 181030Z AUTO VRB02KT 9999 FEW021 SCT029 OVC056 17/11 Q1014 BECMG SCT020TCU SCT050
12:00
M
16 °C 10 km+ 2.700 ft Var Var 2 kt METAR LFCK 181000Z AUTO VRB02KT 9999 BKN027 OVC050 16/12 Q1014 BECMG SCT020TCU SCT050
11:30
V
15 °C 10 km+ 4.900 ft Var Var 3 kt METAR LFCK 180930Z AUTO VRB03KT 9999 FEW014 BKN049 15/12 Q1014 BECMG SCT020TCU SCT050
11:00
M
14 °C 10 km+ 2.400 ft Var Var 2 kt METAR LFCK 180900Z AUTO VRB02KT 9999 SCT018 BKN024 BKN032 14/12 Q1014 BECMG SCT020TCU SCT050
10:30
M
14 °C 10 km+ 1.400 ft Var Var 1 kt METAR LFCK 180830Z AUTO VRB01KT 9999 SCT007 BKN014 BKN021 14/12 Q1014 TEMPO SCT020TCU
10:00
I
13 °C 10 km+ 600 ft 270° 270° 4 kt METAR LFCK 180800Z AUTO 27004KT 9999 BKN006 OVC013 13/12 Q1014 TEMPO SCT020TCU
09:30
I
13 °C 10 km+ 600 ft 290° 290° 5 kt METAR LFCK 180730Z AUTO 29005KT 250V320 9999 BKN006 OVC016 13/12 Q1014 TEMPO SCT020TCU
09:00
I
13 °C 10 km+ 700 ft Var Var 3 kt METAR LFCK 180700Z AUTO VRB03KT 9999 BKN007 BKN015 OVC070 13/12 Q1014 BECMG SCT010 BKN040
08:30
M
12 °C 10 km+ 1.500 ft 250° 250° 3 kt METAR LFCK 180630Z AUTO 25003KT 220V290 9999 SCT006/// BKN015/// BKN034/// ///CB 12/12 Q1014 BECMG SCT010 BKN040
08:00
M
12 °C 10 km+ 1.000 ft 270° 270° 4 kt METAR LFCK 180600Z AUTO 27004KT 9999 -RA OVC010/// ///CB 12/12 Q1013 TEMPO OVC009
07:30
I
12 °C 8 km 800 ft 250° 250° 2 kt METAR LFCK 180530Z AUTO 25002KT 8000 -RA OVC008/// ///CB 12/12 Q1013 TEMPO OVC009
07:00
I
12 °C 10 km+ 700 ft Var Var 3 kt METAR LFCK 180500Z AUTO VRB03KT 9999 -RA OVC007/// ///CB 12/12 Q1013
06:30
I
12 °C 10 km+ 900 ft 260° 260° 3 kt METAR LFCK 180430Z AUTO 26003KT 9999 -RA OVC009/// ///CB 12/12 Q1013
06:00
I
12 °C 10 km+ 900 ft 270° 270° 1 kt METAR LFCK 180400Z AUTO 27001KT 9999 BKN009 BKN013 BKN041 12/12 Q1012
05:30
I
12 °C 10 km+ 900 ft 360° 360° 0 kt METAR LFCK 180330Z AUTO 00000KT 9999 BKN009 BKN024 OVC039 12/12 Q1012
05:00
I
12 °C 10 km+ 800 ft Var Var 3 kt METAR LFCK 180300Z AUTO VRB03KT 9999 BKN008 BKN012 OVC025 12/12 Q1013
04:30
I
12 °C 10 km+ 700 ft 250° 250° 4 kt METAR LFCK 180230Z AUTO 25004KT 9999 BKN007 OVC019 12/12 Q1013
04:00
I
12 °C 10 km+ 700 ft Var Var 3 kt METAR LFCK 180200Z AUTO VRB03KT 9999 BKN007/// OVC016/// ///TCU 12/12 Q1013
03:30
I
12 °C 10 km+ 500 ft 260° 260° 7 kt METAR LFCK 180130Z AUTO 26007KT 9999 OVC005 12/12 Q1013
03:00
I
12 °C 10 km+ 700 ft 230° 230° 4 kt METAR LFCK 180100Z AUTO 23004KT 170V280 9999 BKN007 OVC011 12/12 Q1013
02:30
I
12 °C 10 km+ 900 ft 360° 360° 0 kt METAR LFCK 180030Z AUTO 00000KT 9999 BKN009/// BKN100/// OVC130/// ///CB 12/12 Q1012
02:00
V
12 °C 10 km+ 7.800 ft 060° 060° 3 kt METAR LFCK 180000Z AUTO 06003KT 9999 -RA FEW005/// BKN078/// OVC110/// ///CB 12/12 Q1012
01:30
M
12 °C 8 km 1.600 ft Var Var 2 kt METAR LFCK 172330Z AUTO VRB02KT 8000 RA BKN016/// BKN021/// BKN028/// ///CB 12/12 Q1013
01:00
M
12 °C 6 km 1.600 ft Var Var 2 kt METAR LFCK 172300Z AUTO VRB02KT 6000 RA BKN016/// BKN022/// OVC027/// ///CB 12/12 Q1013
00:30
V
13 °C 10 km+ 5.200 ft 090° 090° 3 kt METAR LFCK 172230Z AUTO 09003KT 060V120 9999 RA FEW035/// OVC052/// ///CB 13/12 Q1013
00:00
M
13 °C 5 km 6.400 ft 040° 040° 3 kt METAR LFCK 172200Z AUTO 04003KT 5000 RA BR FEW044/// SCT054/// BKN064/// ///CB 13/12 Q1013

17 maggio 2024

Tempo Codice Tempo meteorologico Temp. Vista Base nuvolosa Vento METAR/SPECI
23:30
V
13 °C 10 km+ - 030° 030° 2 kt METAR LFCK 172130Z AUTO 03002KT 9999 ///CB 13/12 Q1012 TEMPO VRB15G25KT 4000 SHRA
23:00
V
13 °C 8 km - 310° 310° 3 kt METAR LFCK 172100Z AUTO 31003KT 260V330 8000 RA ///CB 13/12 Q1012 TEMPO VRB15G25KT 4000 SHRA
22:30
V
13 °C 10 km+ 7.000 ft 290° 290° 3 kt METAR LFCK 172030Z AUTO 29003KT 210V010 9999 VCTS FEW036/// SCT045/// OVC070/// ///CB 13/12 Q1012 TEMPO VRB15G25KT 4000 SHRA
22:00
I
13 °C 3,4 km 4.700 ft 090° 090° 8 kt METAR LFCK 172000Z AUTO 09008KT 3400 RA BR FEW021/// SCT034/// BKN047/// ///CB 13/12 Q1011 TEMPO VRB15G25KT
21:30
V
13 °C 10 km+ 3.600 ft 050° 050° 8 kt METAR LFCK 171930Z AUTO 05008KT 9999 TS BKN036/// OVC050/// ///CB 13/11 Q1011 TEMPO VRB15G25KT 4000 SHRA
21:00
V
14 °C 10 km+ 3.400 ft 050° 050° 8 kt METAR LFCK 171900Z AUTO 05008KT 020V080 9999 TS OVC034/// ///CB 14/12 Q1011 TEMPO VRB15G25KT 4000 SHRA
20:30
V
15 °C 10 km+ 3.300 ft 280° 280° 7 kt METAR LFCK 171830Z AUTO 28007KT 240V310 9999 TS BKN033/// OVC050/// ///CB 15/12 Q1011 TEMPO VRB15G25KT 4000 SHRA
20:00
V
16 °C 10 km+ 3.200 ft 290° 290° 9 kt METAR LFCK 171800Z AUTO 29009KT 260V340 9999 TS BKN032/// BKN040/// OVC082/// ///CB 16/12 Q1010 TEMPO VRB15G25KT 4000 SHRA
19:30
V
18 °C 10 km+ - 100° 100° 7 kt METAR LFCK 171730Z AUTO 10007KT 060V140 9999 TS ///CB 18/12 Q1009 TEMPO VRB15G25KT 4000 SHRA
19:00
V
18 °C 10 km+ - 110° 110° 11 kt METAR LFCK 171700Z AUTO 11011KT 050V140 9999 VCTS ///CB 18/11 Q1009 TEMPO NSW BECMG 28005KT
18:30
V
18 °C 10 km+ - 110° 110° 9 kt METAR LFCK 171630Z AUTO 11009KT 060V140 9999 ///CB 18/11 Q1009 NOSIG
18:00
V
19 °C 10 km+ - 110° 110° 13 kt METAR LFCK 171600Z AUTO 11013KT 040V140 CAVOK 19/11 Q1009 TEMPO SCT050CB BKN100 BECMG 28005KT
17:30
V
21 °C 10 km+ - 130° 130° 11 kt METAR LFCK 171530Z AUTO 13011KT 030V170 CAVOK 21/11 Q1009 TEMPO SCT050CB BKN100 BECMG 28005KT
17:00
V
20 °C 10 km+ 5.600 ft 100° 100° 10 kt METAR LFCK 171500Z AUTO 10010KT 070V150 9999 FEW049/// BKN056/// BKN066/// ///TCU 20/11 Q1009 TEMPO 12016G26KT
16:30
V
18 °C 10 km+ - 100° 100° 7 kt METAR LFCK 171430Z AUTO 10007KT 060V130 9999 -RA ///CB 18/11 Q1010 TEMPO 12016G26KT
16:00
V
20 °C 10 km+ - 110° 110° 7 kt METAR LFCK 171400Z AUTO 11007KT 070V160 9999 ///TCU 20/09 Q1010 TEMPO 12016G26KT
15:30
V
20 °C 10 km+ - 110° 110° 6 kt METAR LFCK 171330Z AUTO 11006KT 050V150 CAVOK 20/09 Q1010 TEMPO 12016G26KT SCT050TCU BKN110
15:00
V
20 °C 10 km+ - 120° 120° 9 kt METAR LFCK 171300Z AUTO 12009KT 070V150 CAVOK 20/10 Q1010 TEMPO 12016G26KT SCT050TCU BKN110
14:30
V
19 °C 10 km+ - 120° 120° 10 kt METAR LFCK 171230Z AUTO 12010KT 050V150 CAVOK 19/10 Q1010 TEMPO 12016G26KT SCT050TCU BKN110
14:00
V
19 °C 10 km+ - 110° 110° 12 kt METAR LFCK 171200Z AUTO 11012KT 060V130 9999 ///TCU 19/10 Q1010 TEMPO 12016G26KT BECMG NSC
13:30
V
19 °C 10 km+ - 110° 110° 12 kt METAR LFCK 171130Z AUTO 11012KT 060V130 CAVOK 19/10 Q1010 TEMPO 12016G26KT
13:00
V
20 °C 10 km+ - 100° 100° 14 kt METAR LFCK 171100Z AUTO 10014KT CAVOK 20/09 Q1010 TEMPO 12016G26KT
12:30
V
20 °C 10 km+ - 110° 110° 14 kt METAR LFCK 171030Z AUTO 11014KT 030V140 CAVOK 20/10 Q1009 TEMPO 12016G26KT
12:00
V
19 °C 10 km+ - 110° 110° 14 kt METAR LFCK 171000Z AUTO 11014KT 050V130 CAVOK 19/08 Q1009 TEMPO 12016G26KT
11:30
V
19 °C 10 km+ - 110° 110° 11 kt METAR LFCK 170930Z AUTO 11011KT 050V140 CAVOK 19/08 Q1009 TEMPO 12016G26KT
11:00
V
19 °C 10 km+ - 120° 120° 13 kt METAR LFCK 170900Z AUTO 12013KT 050V140 CAVOK 19/08 Q1009 NOSIG
10:30
V
19 °C 10 km+ - 120° 120° 11 kt METAR LFCK 170830Z AUTO 12011KT 060V140 CAVOK 19/08 Q1009 BECMG 12015G25KT
10:00
V
18 °C 10 km+ - 110° 110° 11 kt METAR LFCK 170800Z AUTO 11011KT 050V140 CAVOK 18/08 Q1009 BECMG 12015G25KT
09:30
V
17 °C 10 km+ - 100° 100° 9 kt METAR LFCK 170730Z AUTO 10009KT 030V140 CAVOK 17/07 Q1009 BECMG 12015G25KT
09:00
V
15 °C 10 km+ - Var Var 3 kt METAR LFCK 170700Z AUTO VRB03KT CAVOK 15/10 Q1009 NOSIG
08:30
V
14 °C 10 km+ - Var Var 2 kt METAR LFCK 170630Z AUTO VRB02KT CAVOK 14/09 Q1009 NOSIG
08:00
V
12 °C 10 km+ - Var Var 2 kt METAR LFCK 170600Z AUTO VRB02KT CAVOK 12/09 Q1009 NOSIG
Segnala modifiche